Latest Weather Observations for Douglas River

IDD60801

Issued at 7:31 am CST Friday 29 April 2016 (issued every 30 minutes, with the page automatically refreshed every 10 minutes)

About weather observations | Map of weather stations | Latest weather observations for NT | Other Formats
Station Details ID: 014901 Name: DOUGLAS RIVER Lat: -13.83 Lon: 131.19 Height: 42.8 m
Data from the previous 72 hours. | See also: Recent months at Douglas River
Date/Time
CST
Temp
°C
App
Temp
°C
Dew
Point
Rel
Hum
%
Delta-T
°C
Wind Press
QNH
hPa
Press
MSL
hPa
Rain
since 9 am
mm
Dir
 
Spd
km/h
Gust
km/h
Spd
kts
Gust
kts
29/07:30am 22.4 27.0 21.8 96 0.4 CALM 0 0 0 0 1012.5 1012.2 0.0
29/07:00am 21.6 26.0 21.3 98 0.2 CALM 0 0 0 0 1011.9 1011.6 0.0
29/06:30am 21.8 26.2 21.3 97 0.3 CALM 0 0 0 0 1011.6 1011.3 0.0
29/06:00am 21.9 26.1 21.0 95 0.6 CALM 0 0 0 0 1011.5 1011.2 0.0
29/05:30am 22.4 26.9 21.6 95 0.5 CALM 0 0 0 0 1011.3 1011.0 0.0
29/05:00am 22.8 27.1 22.0 95 0.5 NNE 2 6 1 3 1011.1 1010.8 0.0
29/04:30am 23.1 27.2 22.2 95 0.6 NNE 4 6 2 3 1011.0 1010.7 0.0
29/04:00am 23.1 26.9 22.4 96 0.5 N 6 7 3 4 1010.8 1010.5 0.0
29/03:30am 22.9 27.5 21.8 93 0.7 CALM 0 0 0 0 1010.9 1010.6 0.0
29/03:00am 23.0 27.8 22.1 95 0.6 CALM 0 0 0 0 1011.0 1010.7 0.0
29/02:30am 22.9 27.7 22.1 95 0.5 CALM 0 0 0 0 1011.3 1011.0 0.0
29/02:00am 23.0 26.9 21.9 93 0.7 W 4 6 2 3 1011.4 1011.1 0.0
29/01:30am 23.1 27.4 21.9 93 0.8 NW 2 7 1 4 1011.7 1011.4 0.0
29/01:00am 23.6 28.4 22.1 91 1.0 CALM 0 0 0 0 1011.8 1011.5 0.0
29/12:30am 24.7 29.8 22.6 88 1.4 CALM 0 4 0 2 1011.9 1011.6 0.0
29/12:00am 24.8 29.9 22.7 88 1.4 CALM 0 0 0 0 1011.9 1011.6 0.0
 
Date/Time
CST
Temp
°C
App
Temp
°C
Dew
Point
Rel
Hum
%
Delta-T
°C
Wind Press
QNH
hPa
Press
MSL
hPa
Rain
since 9 am
mm
Dir
 
Spd
km/h
Gust
km/h
Spd
kts
Gust
kts
28/11:30pm 24.9 30.0 22.7 87 1.5 CALM 0 0 0 0 1012.2 1011.9 0.0
28/11:00pm 26.3 30.2 22.6 80 2.5 NW 6 9 3 5 1012.1 1011.8 0.0
28/10:30pm 27.3 31.1 22.7 76 3.1 NW 7 13 4 7 1012.1 1011.8 0.0
28/10:00pm 27.7 30.6 21.1 67 4.4 NW 7 9 4 5 1011.9 1011.6 0.0
28/09:30pm 27.6 31.0 19.4 61 5.3 CALM 0 0 0 0 1011.3 1011.0 0.0
28/09:00pm 27.8 32.0 20.9 66 4.6 CALM 0 0 0 0 1011.1 1010.8 0.0
28/08:30pm 28.0 32.2 20.9 65 4.7 CALM 0 0 0 0 1010.9 1010.6 0.0
28/08:00pm 28.9 32.8 20.4 60 5.6 CALM 0 0 0 0 1010.6 1010.3 0.0
28/07:30pm 29.3 33.0 19.9 57 6.2 CALM 0 0 0 0 1010.3 1010.0 0.0
28/07:00pm 29.6 33.3 20.0 56 6.3 CALM 0 0 0 0 1009.9 1009.6 0.0
28/06:30pm 30.8 33.7 19.0 49 7.7 SSE 2 7 1 4 1009.7 1009.4 0.0
28/06:00pm 31.8 33.3 18.8 46 8.5 SSE 9 11 5 6 1009.2 1008.9 0.0
28/05:30pm 33.2 33.6 17.3 38 10.2 S 11 13 6 7 1008.9 1008.6 0.0
28/05:00pm 34.2 34.2 15.3 32 11.8 S 9 13 5 7 1008.6 1008.3 0.0
28/04:30pm 34.6 35.5 13.9 28 12.7 SE 2 7 1 4 1008.3 1008.0 0.0
28/04:00pm 34.8 33.9 13.8 28 12.9 SSE 11 15 6 8 1008.3 1008.0 0.0
28/03:30pm 34.9 33.7 13.9 28 12.9 SSE 13 15 7 8 1008.4 1008.1 0.0
28/03:00pm 35.8 35.4 14.1 27 13.4 SSE 9 15 5 8 1008.5 1008.2 0.0
28/02:30pm 36.2 35.7 13.8 26 13.8 SE 9 13 5 7 1008.6 1008.3 0.0
28/02:00pm 35.4 34.7 14.2 28 13.1 SE 11 17 6 9 1009.0 1008.7 0.0
28/01:30pm 35.2 32.8 12.7 25 13.6 ESE 17 22 9 12 1009.5 1009.2 0.0
28/01:00pm 35.5 34.9 13.4 26 13.5 ENE 9 19 5 10 1009.9 1009.6 0.0
28/12:30pm 35.5 35.8 15.9 31 12.4 E 9 20 5 11 1010.3 1010.0 0.0
28/12:00pm 35.3 34.9 16.3 32 12.1 ENE 13 33 7 18 1011.0 1010.7 0.0
28/11:30am 33.4 34.4 18.7 41 9.6 NE 11 20 6 11 1011.6 1011.3 0.0
28/11:00am 33.3 35.3 19.9 45 8.9 NE 9 15 5 8 1012.0 1011.7 0.0
28/10:30am 31.3 33.5 20.5 52 7.2 NE 9 13 5 7 1012.3 1012.0 0.0
28/10:00am 31.2 34.2 21.2 55 6.7 NE 7 9 4 5 1012.3 1012.0 0.0
28/09:30am 29.4 31.8 20.0 57 6.2 ENE 7 13 4 7 1012.2 1011.9 0.0
28/09:00am 26.8 29.1 19.9 66 4.5 ESE 7 9 4 5 1012.2 1011.9 0.0
28/08:30am 24.1 26.3 20.3 79 2.5 ESE 9 11 5 6 1011.7 1011.4 0.0
28/08:00am 21.7 24.3 20.1 91 1.0 E 6 7 3 4 1011.4 1011.1 0.0
28/07:30am 21.2 23.5 19.8 92 0.9 E 7 9 4 5 1011.0 1010.7 0.0
28/07:00am 20.8 23.1 19.9 95 0.6 E 7 9 4 5 1010.6 1010.3 0.0
28/06:30am 20.9 24.5 19.8 93 0.7 CALM 0 0 0 0 1010.2 1009.9 0.0
28/06:00am 20.5 24.0 19.6 95 0.6 CALM 0 0 0 0 1010.0 1009.7 0.0
28/05:30am 20.4 24.0 19.8 96 0.4 CALM 0 0 0 0 1009.6 1009.3 0.0
28/05:00am 20.1 23.7 19.8 98 0.2 CALM 0 0 0 0 1009.5 1009.2 0.0
28/04:30am 20.5 23.9 19.4 93 0.7 CALM 0 0 0 0 1009.6 1009.3 0.0
28/04:00am 20.5 23.9 19.4 93 0.7 CALM 0 0 0 0 1009.4 1009.1 0.0
28/03:30am 21.1 24.7 19.7 92 0.9 CALM 0 0 0 0 1009.4 1009.1 0.0
28/03:00am 21.3 25.0 19.9 92 0.9 CALM 0 0 0 0 1009.6 1009.3 0.0
28/02:30am 22.2 24.9 20.3 89 1.2 NNW 6 9 3 5 1009.7 1009.4 0.0
28/02:00am 21.9 24.8 19.9 88 1.3 NNW 4 7 2 4 1010.0 1009.7 0.0
28/01:30am 23.2 26.9 19.9 82 2.1 CALM 0 0 0 0 1010.0 1009.7 0.0
28/01:00am 23.2 26.6 20.1 83 2.0 NW 2 6 1 3 1010.2 1009.9 0.0
28/12:30am 24.4 26.7 19.9 76 2.9 NW 7 9 4 5 1010.1 1009.8 0.0
28/12:00am 24.7 28.5 20.1 75 3.0 CALM 0 0 0 0 1010.2 1009.9 0.0
 
Date/Time
CST
Temp
°C
App
Temp
°C
Dew
Point
Rel
Hum
%
Delta-T
°C
Wind Press
QNH
hPa
Press
MSL
hPa
Rain
since 9 am
mm
Dir
 
Spd
km/h
Gust
km/h
Spd
kts
Gust
kts
27/11:30pm 25.1 27.7 20.4 75 3.1 SE 7 9 4 5 1010.3 1010.0 0.0
27/11:00pm 25.6 27.6 19.9 70 3.7 SE 9 11 5 6 1010.4 1010.1 0.0
27/10:30pm 25.7 27.7 20.0 71 3.7 SE 9 9 5 5 1010.4 1010.1 0.0
27/10:00pm 26.1 28.2 20.1 69 3.9 SE 9 9 5 5 1010.5 1010.2 0.0
27/09:30pm 26.4 28.7 19.8 67 4.3 SE 7 9 4 5 1010.4 1010.1 0.0
27/09:00pm 26.4 29.1 20.6 70 3.8 SE 7 9 4 5 1010.1 1009.8 0.0
27/08:30pm 27.2 29.7 20.2 65 4.6 SE 7 9 4 5 1010.0 1009.7 0.0
27/08:00pm 27.0 29.2 20.5 67 4.3 SE 9 9 5 5 1009.6 1009.3 0.0
27/07:30pm 27.9 30.1 20.5 64 4.9 SE 9 9 5 5 1009.2 1008.9 0.0
27/07:00pm 28.9 31.5 20.4 60 5.6 SE 7 9 4 5 1008.9 1008.6 0.0
27/06:30pm 30.0 33.1 21.0 58 6.0 SSE 6 9 3 5 1008.6 1008.3 0.0
27/06:00pm 31.8 33.9 20.2 50 7.7 SSE 9 13 5 7 1008.4 1008.1 0.0
27/05:30pm 33.0 34.4 19.5 45 8.9 S 11 15 6 8 1008.2 1007.9 0.0
27/05:00pm 32.9 34.1 18.3 42 9.5 SE 9 13 5 7 1008.1 1007.8 0.0
27/04:30pm 33.7 34.0 18.0 39 10.2 SE 13 19 7 10 1007.9 1007.6 0.0
27/04:00pm 35.6 34.4 16.1 31 12.4 ESE 17 20 9 11 1007.9 1007.6 0.0
27/03:30pm 35.6 34.0 16.1 31 12.4 ESE 19 26 10 14 1008.0 1007.7 0.0
27/03:00pm 33.0 32.5 18.6 42 9.4 ESE 19 26 10 14 1008.2 1007.9 0.0
27/02:30pm 34.8 36.6 18.3 37 10.8 E 6 17 3 9 1008.3 1008.0 0.0
27/02:00pm 35.1 37.3 19.6 40 10.3 NNE 7 11 4 6 1008.7 1008.4 0.0
27/01:30pm 34.7 37.2 20.2 42 9.7 NNE 7 13 4 7 1009.2 1008.9 0.0
27/01:00pm 34.5 36.7 20.3 43 9.5 E 9 17 5 9 1009.5 1009.2 0.0
27/12:30pm 35.3 38.3 21.3 44 9.5 NE 7 13 4 7 1010.0 1009.7 0.0
27/12:00pm 33.4 36.5 21.5 49 8.1 NNE 7 13 4 7 1010.6 1010.3 0.0
27/11:30am 33.0 36.6 22.0 52 7.5 NNE 6 9 3 5 1011.2 1010.9 0.0
27/11:00am 32.1 35.3 21.6 53 7.1 NNW 7 11 4 6 1011.7 1011.4 0.0
27/10:30am 31.4 35.3 22.5 59 6.1 ESE 6 9 3 5 1012.1 1011.8 0.0
27/10:00am 29.8 33.3 22.1 63 5.2 NNE 7 11 4 6 1012.2 1011.9 0.0
27/09:30am 28.2 32.2 22.8 72 3.7 N 6 9 3 5 1012.2 1011.9 0.0
27/09:00am 25.8 30.3 23.0 84 1.9 SSE 4 7 2 4 1012.3 1012.0 0.0
27/08:30am 22.7 27.6 22.3 98 0.3 CALM 0 0 0 0 1012.1 1011.8 0.0
27/08:00am 21.4 25.6 20.9 97 0.3 CALM 0 0 0 0 1011.9 1011.6 0.0
27/07:30am 20.6 24.5 20.3 98 0.2 CALM 0 0 0 0 1011.6 1011.3 0.0
27/07:00am 20.6 23.0 20.1 97 0.3 NNE 7 7 4 4 1011.3 1011.0 0.0
27/06:30am 20.3 22.7 19.7 96 0.4 NNE 6 7 3 4 1010.9 1010.6 0.0
27/06:00am 20.5 24.3 20.2 98 0.2 CALM 0 0 0 0 1010.5 1010.2 0.0
27/05:30am 21.1 25.1 20.5 96 0.4 CALM 0 0 0 0 1010.2 1009.9 0.0
27/05:00am 21.3 25.4 20.7 96 0.4 CALM 0 0 0 0 1010.4 1010.1 0.0
27/04:30am 20.6 24.4 20.1 97 0.3 CALM 0 0 0 0 1010.4 1010.1 0.0
27/04:00am 21.0 24.9 20.4 96 0.4 CALM 0 0 0 0 1010.4 1010.1 0.0
27/03:30am 21.6 25.7 20.8 95 0.5 CALM 0 0 0 0 1010.6 1010.3 0.0
27/03:00am 20.9 24.1 19.8 93 0.7 N 2 9 1 5 1011.0 1010.7 0.0
27/02:30am 21.4 25.3 20.3 93 0.7 CALM 0 0 0 0 1010.8 1010.5 0.0
27/02:00am 21.7 25.5 20.1 91 1.0 CALM 0 6 0 3 1011.0 1010.7 0.0
27/01:30am 22.1 25.7 20.6 91 1.0 WNW 2 6 1 3 1011.2 1010.9 0.0
27/01:00am 22.6 25.7 19.5 82 2.0 NNW 2 7 1 4 1011.3 1011.0 0.0
27/12:30am 23.7 26.3 19.2 76 2.9 NNW 4 9 2 5 1011.5 1011.2 0.0
27/12:00am 24.0 25.7 18.6 72 3.4 N 7 9 4 5 1011.5 1011.2 0.0
 
Date/Time
CST
Temp
°C
App
Temp
°C
Dew
Point
Rel
Hum
%
Delta-T
°C
Wind Press
QNH
hPa
Press
MSL
hPa
Rain
since 9 am
mm
Dir
 
Spd
km/h
Gust
km/h
Spd
kts
Gust
kts
26/11:30pm 23.6 27.4 20.2 81 2.2 CALM 0 0 0 0 1011.3 1011.0 0.0
26/11:00pm 24.1 28.2 20.7 81 2.2 CALM 0 0 0 0 1011.3 1011.0 0.0
26/10:30pm 24.8 28.6 20.2 75 3.0 CALM 0 0 0 0 1011.2 1010.9 0.0
26/10:00pm 25.9 29.0 19.4 67 4.2 ESE 2 6 1 3 1011.2 1010.9 0.0
26/09:30pm 26.5 28.9 19.7 66 4.4 SE 6 6 3 3 1011.1 1010.8 0.0
26/09:00pm 27.0 29.5 19.8 64 4.7 SE 6 7 3 4 1010.9 1010.6 0.0
26/08:30pm 27.2 30.8 19.8 64 4.8 CALM 0 0 0 0 1010.4 1010.1 0.0
26/08:00pm 27.9 31.3 19.4 60 5.5 CALM 0 0 0 0 1010.0 1009.7 0.0
26/07:30pm 28.6 32.3 19.9 59 5.7 CALM 0 0 0 0 1009.6 1009.3 0.0
26/07:00pm 29.7 32.5 19.6 54 6.6 SSW 4 7 2 4 1009.6 1009.3 0.0
26/06:30pm 31.4 34.1 20.3 51 7.4 S 6 7 3 4 1009.4 1009.1 0.0
26/06:00pm 33.0 34.9 19.0 43 9.2 SE 7 11 4 6 1009.2 1008.9 0.0
26/05:30pm 34.4 33.9 15.8 33 11.7 SE 13 15 7 8 1008.9 1008.6 0.0
26/05:00pm 35.3 34.5 15.2 30 12.6 ESE 13 26 7 14 1008.7 1008.4 0.0
26/04:30pm 35.8 34.6 15.1 29 13.0 SE 15 22 8 12 1008.5 1008.2 0.0
26/04:00pm 34.7 32.9 14.5 29 12.5 ESE 17 20 9 11 1008.6 1008.3 0.0
26/03:30pm 35.4 35.3 16.0 31 12.3 SE 11 17 6 9 1008.6 1008.3 0.0
26/03:00pm 36.7 37.1 16.4 30 13.0 E 9 24 5 13 1008.8 1008.5 0.0
26/02:30pm 34.7 33.6 15.2 31 12.2 E 15 30 8 16 1009.1 1008.8 0.0
26/02:00pm 35.1 34.0 15.3 30 12.4 SE 15 30 8 16 1009.4 1009.1 0.0
26/01:30pm 35.7 33.9 14.4 28 13.2 E 17 37 9 20 1009.7 1009.4 0.0
26/01:00pm 35.8 32.9 14.1 27 13.4 E 22 33 12 18 1010.0 1009.7 0.0
26/12:30pm 33.3 31.3 15.6 34 11.1 E 20 32 11 17 1010.4 1010.1 0.0
26/12:00pm 34.5 34.0 17.8 37 10.8 ENE 17 28 9 15 1010.9 1010.6 0.0
26/11:30am 32.5 33.8 19.3 45 8.7 E 11 19 6 10 1011.4 1011.1 0.0
26/11:00am 32.8 35.0 19.6 45 8.7 NE 7 11 4 6 1011.9 1011.6 0.0
26/10:30am 31.3 33.0 19.4 49 7.8 E 9 15 5 8 1012.2 1011.9 0.0
26/10:00am 29.7 30.3 17.6 48 7.7 SSE 11 17 6 9 1012.7 1012.4 0.0
26/09:30am 27.4 26.9 16.0 49 7.0 SE 13 17 7 9 1012.9 1012.6 0.0
26/09:00am 25.6 24.8 15.0 52 6.4 SE 13 17 7 9 1012.8 1012.5 0.0
26/08:30am 23.2 22.9 14.4 57 5.2 ESE 9 13 5 7 1012.6 1012.3 0.0
26/08:00am 20.9 20.8 15.0 69 3.5 SE 9 13 5 7 1012.4 1012.1 0.0

Other Formats:

Comma delimited format used in spreadsheet applications
http://www.bom.gov.au/fwo/IDD60801/IDD60801.94128.axf

JavaScript Object Notation format (JSON) in row-major order
http://www.bom.gov.au/fwo/IDD60801/IDD60801.94128.json